createdAt,value
2022-09-14T00:00:37.359Z,2.50
2022-09-14T00:03:41.401Z,2.42
2022-09-14T00:09:49.182Z,2.42
2022-09-14T00:12:54.702Z,2.50
2022-09-14T00:15:58.358Z,2.20
2022-09-14T00:19:05.503Z,2.13
2022-09-14T00:22:09.145Z,2.58
2022-09-14T00:25:12.765Z,2.10
2022-09-14T00:28:18.368Z,2.63
2022-09-14T00:31:22.908Z,2.92
2022-09-14T00:34:26.691Z,2.47
2022-09-14T00:37:30.341Z,2.63
2022-09-14T00:40:34.234Z,2.58
2022-09-14T00:43:58.364Z,2.30
2022-09-14T00:47:03.883Z,2.30
2022-09-14T00:50:08.773Z,2.47
2022-09-14T00:53:12.481Z,2.42
2022-09-14T00:56:16.846Z,2.67
2022-09-14T00:59:27.073Z,2.40
2022-09-14T01:02:30.998Z,2.58
2022-09-14T01:09:04.931Z,2.40
2022-09-14T01:12:17.645Z,3.08
2022-09-14T01:15:28.349Z,2.88
2022-09-14T01:18:37.670Z,2.58
2022-09-14T01:21:43.651Z,2.90
2022-09-14T01:24:50.698Z,2.60
2022-09-14T01:27:57.886Z,2.17
2022-09-14T01:31:04.976Z,1.90
2022-09-14T01:34:14.226Z,2.10
2022-09-14T01:37:22.186Z,2.72
2022-09-14T01:40:31.041Z,1.92
2022-09-14T01:43:40.177Z,2.35
2022-09-14T01:46:49.985Z,2.45
2022-09-14T01:50:00.853Z,2.30
2022-09-14T01:53:10.387Z,2.08
2022-09-14T01:56:19.725Z,2.00
2022-09-14T01:59:29.346Z,2.50
2022-09-14T02:02:39.442Z,2.08
2022-09-14T02:05:48.479Z,2.97
2022-09-14T02:08:53.372Z,2.45
2022-09-14T02:12:00.075Z,2.30
2022-09-14T02:15:07.364Z,2.05
2022-09-14T02:18:11.228Z,2.03
2022-09-14T02:21:17.534Z,2.00
2022-09-14T02:24:21.905Z,2.78
2022-09-14T02:27:26.346Z,2.15
2022-09-14T02:30:40.345Z,1.90
2022-09-14T02:33:50.319Z,2.40
2022-09-14T02:37:02.063Z,2.10
2022-09-14T02:40:14.047Z,2.28
2022-09-14T02:43:29.308Z,2.20
2022-09-14T02:46:43.239Z,2.00
2022-09-14T02:49:53.214Z,2.70
2022-09-14T02:53:02.491Z,2.92
2022-09-14T02:56:11.090Z,2.72
2022-09-14T02:59:14.750Z,2.38
2022-09-14T03:02:20.401Z,2.42
2022-09-14T03:05:24.428Z,2.75
2022-09-14T03:11:31.930Z,2.60
2022-09-14T03:14:35.535Z,2.50
2022-09-14T03:17:41.065Z,2.13
2022-09-14T03:20:45.078Z,2.35
2022-09-14T03:26:52.590Z,3.83
2022-09-14T03:29:56.230Z,3.63
2022-09-14T03:33:02.496Z,3.45
2022-09-14T03:36:12.245Z,3.17
2022-09-14T03:39:15.915Z,3.40
2022-09-14T03:42:19.910Z,3.17
2022-09-14T03:45:23.738Z,2.60
2022-09-14T03:48:30.992Z,2.80
2022-09-14T03:51:36.090Z,2.38
2022-09-14T03:54:39.733Z,2.40
2022-09-14T03:57:43.441Z,2.15
2022-09-14T04:00:47.166Z,2.67
2022-09-14T04:03:52.860Z,3.00
2022-09-14T04:06:56.711Z,2.40
2022-09-14T04:10:00.478Z,2.70
2022-09-14T04:13:04.140Z,2.30
2022-09-14T04:16:08.045Z,2.88
2022-09-14T04:19:14.401Z,2.63
2022-09-14T04:22:18.014Z,2.72
2022-09-14T04:25:22.643Z,2.70
2022-09-14T04:28:26.921Z,2.60
2022-09-14T04:31:30.622Z,2.70
2022-09-14T04:34:36.976Z,2.92
2022-09-14T04:37:40.610Z,2.92
2022-09-14T04:40:44.189Z,2.33
2022-09-14T04:43:49.049Z,2.10
2022-09-14T04:46:52.760Z,2.35
2022-09-14T04:49:58.438Z,2.45
2022-09-14T04:53:02.062Z,2.38
2022-09-14T04:56:08.008Z,2.35
2022-09-14T04:59:12.014Z,2.50
2022-09-14T05:05:21.359Z,2.63
2022-09-14T05:08:25.103Z,2.55
2022-09-14T05:11:33.330Z,3.80
2022-09-14T05:14:37.010Z,2.90
2022-09-14T05:17:40.619Z,3.00
2022-09-14T05:20:46.645Z,3.45
2022-09-14T05:23:55.244Z,2.70
2022-09-14T05:27:01.629Z,3.30
2022-09-14T05:30:06.917Z,2.80
2022-09-14T05:33:10.509Z,2.80
2022-09-14T05:36:16.339Z,3.10
2022-09-14T05:39:23.345Z,2.70
2022-09-14T05:42:27.138Z,3.20
2022-09-14T05:45:30.806Z,3.17
2022-09-14T05:48:34.877Z,3.38
2022-09-14T05:54:43.812Z,2.85
2022-09-14T05:57:50.682Z,3.38
2022-09-14T06:00:54.329Z,2.75
2022-09-14T06:03:59.677Z,4.05
2022-09-14T06:07:18.323Z,2.90
2022-09-14T06:10:23.640Z,3.40
2022-09-14T06:13:27.295Z,3.10
2022-09-14T06:16:31.934Z,3.47
2022-09-14T06:19:36.653Z,3.47
2022-09-14T06:22:43.078Z,3.53
2022-09-14T06:25:47.477Z,4.13
2022-09-14T06:28:52.008Z,4.88
2022-09-14T06:31:55.971Z,3.95
2022-09-14T06:38:05.254Z,4.60
2022-09-14T06:41:11.605Z,4.82
2022-09-14T06:44:15.343Z,4.90
2022-09-14T06:47:18.959Z,4.65
2022-09-14T06:50:22.588Z,4.30
2022-09-14T06:53:28.296Z,4.38
2022-09-14T06:56:34.189Z,4.80
2022-09-14T06:59:38.028Z,4.03
2022-09-14T07:02:41.769Z,3.70
2022-09-14T07:05:45.474Z,4.43
2022-09-14T07:08:52.411Z,3.83
2022-09-14T07:11:56.081Z,3.80
2022-09-14T07:14:59.674Z,3.85
2022-09-14T07:18:03.691Z,3.88
2022-09-14T07:24:14.845Z,3.65
2022-09-14T07:27:18.484Z,3.67
2022-09-14T07:30:24.237Z,3.65
2022-09-14T07:33:28.094Z,3.42
2022-09-14T07:36:34.998Z,3.30
2022-09-14T07:39:40.786Z,3.03
2022-09-14T07:42:44.414Z,3.30
2022-09-14T07:45:48.018Z,3.08
2022-09-14T07:48:57.047Z,2.95
2022-09-14T07:52:00.931Z,3.55
2022-09-14T07:58:11.403Z,3.88
2022-09-14T08:01:17.699Z,2.90
2022-09-14T08:04:21.622Z,3.88
2022-09-14T08:07:25.233Z,3.17
2022-09-14T08:10:30.714Z,3.35
2022-09-14T08:13:35.453Z,2.83
2022-09-14T08:16:39.985Z,2.70
2022-09-14T08:19:43.541Z,3.20
2022-09-14T08:22:47.337Z,2.92
2022-09-14T08:25:52.837Z,3.28
2022-09-14T08:28:58.926Z,3.08
2022-09-14T08:32:02.712Z,3.00
2022-09-14T08:38:10.178Z,2.10
2022-09-14T08:41:26.068Z,2.17
2022-09-14T08:44:32.616Z,2.25
2022-09-14T08:47:39.175Z,2.15
2022-09-14T08:50:42.857Z,2.45
2022-09-14T08:53:47.577Z,2.90
2022-09-14T08:57:00.770Z,1.50
2022-09-14T09:00:12.578Z,1.95
2022-09-14T09:03:51.232Z,2.67
2022-09-14T09:07:03.237Z,1.90
2022-09-14T09:10:10.294Z,1.65
2022-09-14T09:13:19.070Z,1.55
2022-09-14T09:16:25.407Z,2.03
2022-09-14T09:19:34.102Z,1.65
2022-09-14T09:22:42.078Z,2.05
2022-09-14T09:25:59.384Z,1.45
2022-09-14T09:29:06.131Z,2.00
2022-09-14T09:32:28.699Z,1.23
2022-09-14T09:35:35.447Z,1.35
2022-09-14T09:38:46.833Z,2.05
2022-09-14T09:41:56.331Z,1.70
2022-09-14T09:45:04.301Z,1.40
2022-09-14T09:48:12.481Z,1.48
2022-09-14T09:51:22.170Z,1.50
2022-09-14T09:54:31.135Z,1.48
2022-09-14T09:57:36.714Z,1.15
2022-09-14T10:00:42.292Z,1.35
2022-09-14T10:03:50.866Z,1.08
2022-09-14T10:06:55.298Z,1.35
2022-09-14T10:10:01.384Z,1.40
2022-09-14T10:13:07.070Z,1.10
2022-09-14T10:16:17.389Z,0.95
2022-09-14T10:19:25.571Z,1.60
2022-09-14T10:22:30.715Z,0.75
2022-09-14T10:25:34.335Z,0.75
2022-09-14T10:28:38.357Z,2.08
2022-09-14T10:34:48.201Z,1.20
2022-09-14T10:38:07.597Z,0.88
2022-09-14T10:41:26.617Z,1.35
2022-09-14T10:44:47.436Z,0.90
2022-09-14T10:48:17.408Z,1.30
2022-09-14T10:51:35.226Z,1.15
2022-09-14T10:55:04.574Z,1.35
2022-09-14T10:58:26.900Z,1.40
2022-09-14T11:01:47.528Z,1.67
2022-09-14T11:05:16.255Z,1.42
2022-09-14T11:08:25.905Z,1.40
2022-09-14T11:11:40.165Z,1.55
2022-09-14T11:18:12.325Z,1.88
2022-09-14T11:21:28.901Z,1.85
2022-09-14T11:24:39.786Z,1.58
2022-09-14T11:27:47.522Z,1.92
2022-09-14T11:30:56.012Z,1.38
2022-09-14T11:34:12.458Z,1.58
2022-09-14T11:37:20.834Z,1.60
2022-09-14T11:40:29.329Z,2.05
2022-09-14T11:43:43.963Z,1.70
2022-09-14T11:46:53.754Z,1.52
2022-09-14T11:50:07.740Z,1.40
2022-09-14T11:53:15.414Z,1.88
2022-09-14T11:56:28.161Z,1.52
2022-09-14T11:59:53.910Z,1.30
2022-09-14T12:03:14.501Z,1.42
2022-09-14T12:06:43.686Z,1.42
2022-09-14T12:09:49.634Z,1.55
2022-09-14T12:12:55.890Z,1.52
2022-09-14T12:16:04.479Z,1.30
2022-09-14T12:19:19.037Z,1.60
2022-09-14T12:22:34.574Z,1.40
2022-09-14T12:25:41.574Z,1.15
2022-09-14T12:28:51.987Z,1.13
2022-09-14T12:32:27.262Z,1.40
2022-09-14T12:35:48.177Z,1.45
2022-09-14T12:39:22.729Z,1.15
2022-09-14T12:42:31.630Z,1.10
2022-09-14T12:45:52.646Z,1.15
2022-09-14T12:48:58.320Z,1.00
2022-09-14T12:52:23.379Z,1.33
2022-09-14T12:55:42.071Z,1.05
2022-09-14T12:59:04.440Z,1.77
2022-09-14T13:02:31.569Z,1.10
2022-09-14T13:05:36.062Z,1.33
2022-09-14T13:08:39.902Z,1.48
2022-09-14T13:11:47.882Z,1.30
2022-09-14T13:14:57.706Z,1.20
2022-09-14T13:18:03.175Z,1.17
2022-09-14T13:21:23.358Z,1.10
2022-09-14T13:24:34.097Z,1.30
2022-09-14T13:27:39.563Z,1.30
2022-09-14T13:30:54.377Z,1.20
2022-09-14T13:33:58.459Z,1.40
2022-09-14T13:37:02.502Z,1.48
2022-09-14T13:40:07.806Z,1.50
2022-09-14T13:43:12.064Z,1.30
2022-09-14T13:46:20.442Z,1.55
2022-09-14T13:49:24.853Z,1.42
2022-09-14T13:52:57.131Z,2.60
2022-09-14T13:55:56.279Z,1.13
2022-09-14T13:59:20.858Z,1.50
2022-09-14T14:02:29.150Z,0.70
2022-09-14T14:05:36.345Z,1.60
2022-09-14T14:08:40.497Z,0.95
2022-09-14T14:11:46.973Z,1.30
2022-09-14T14:14:58.036Z,1.10
2022-09-14T14:18:38.622Z,1.55
2022-09-14T14:21:44.182Z,1.98
2022-09-14T14:25:12.349Z,1.10
2022-09-14T14:28:18.445Z,1.52
2022-09-14T14:31:25.617Z,1.55
2022-09-14T14:34:30.818Z,1.35
2022-09-14T14:37:36.415Z,0.82
2022-09-14T14:40:42.158Z,1.40
2022-09-14T14:43:47.246Z,1.23
2022-09-14T14:46:51.258Z,1.50
2022-09-14T14:49:54.931Z,1.58
2022-09-14T14:53:00.654Z,1.20
2022-09-14T14:56:04.406Z,1.20
2022-09-14T14:59:17.907Z,2.28
2022-09-14T15:02:21.513Z,1.02
2022-09-14T15:05:25.558Z,1.63
2022-09-14T15:08:31.110Z,1.48
2022-09-14T15:11:35.493Z,1.30
2022-09-14T15:14:39.165Z,1.20
2022-09-14T15:17:42.831Z,2.97
2022-09-14T15:20:46.435Z,2.00
2022-09-14T15:23:52.266Z,1.70
2022-09-14T15:26:56.059Z,1.73
2022-09-14T15:29:59.707Z,1.67
2022-09-14T15:33:03.364Z,2.17
2022-09-14T15:36:07.386Z,1.83
2022-09-14T15:39:16.115Z,2.80
2022-09-14T15:42:20.052Z,1.77
2022-09-14T15:48:27.067Z,1.60
2022-09-14T15:51:30.665Z,1.20
2022-09-14T15:54:38.450Z,1.42
2022-09-14T15:57:42.065Z,1.63
2022-09-14T16:00:46.228Z,1.40
2022-09-14T16:03:49.853Z,1.52
2022-09-14T16:06:53.521Z,1.00
2022-09-14T16:09:59.290Z,1.33
2022-09-14T16:13:02.955Z,1.30
2022-09-14T16:16:09.309Z,1.00
2022-09-14T16:19:15.048Z,1.83
2022-09-14T16:22:18.674Z,0.98
2022-09-14T16:25:24.222Z,1.65
2022-09-14T16:28:28.794Z,1.27
2022-09-14T16:31:34.219Z,1.42
2022-09-14T16:34:38.195Z,1.90
2022-09-14T16:37:41.828Z,1.38
2022-09-14T16:40:47.402Z,1.30
2022-09-14T16:43:55.641Z,1.30
2022-09-14T16:47:00.215Z,1.48
2022-09-14T16:50:04.773Z,2.22
2022-09-14T16:53:08.389Z,1.65
2022-09-14T16:56:16.699Z,0.95
2022-09-14T16:59:20.592Z,1.13
2022-09-14T17:05:27.819Z,1.73
2022-09-14T17:08:31.565Z,1.13
2022-09-14T17:11:38.171Z,1.13
2022-09-14T17:14:41.820Z,1.30
2022-09-14T17:17:45.488Z,1.13
2022-09-14T17:20:56.065Z,1.48
2022-09-14T17:24:00.569Z,1.38
2022-09-14T17:27:06.161Z,3.72
2022-09-14T17:30:11.182Z,9.60
2022-09-14T17:33:14.775Z,13.55
2022-09-14T17:36:18.526Z,12.10
2022-09-14T17:39:22.152Z,13.63
2022-09-14T17:42:28.256Z,16.10
2022-09-14T17:45:31.916Z,11.38
2022-09-14T17:48:37.989Z,8.80
2022-09-14T17:51:43.546Z,5.63
2022-09-14T17:54:47.146Z,4.82
2022-09-14T17:57:52.692Z,2.70
2022-09-14T18:01:06.158Z,2.08
2022-09-14T18:04:11.707Z,2.08
2022-09-14T18:07:15.910Z,1.48
2022-09-14T18:10:19.947Z,2.67
2022-09-14T18:13:25.534Z,2.28
2022-09-14T18:16:29.446Z,1.48
2022-09-14T18:22:36.593Z,1.40
2022-09-14T18:25:41.995Z,1.67
2022-09-14T18:28:50.123Z,1.35
2022-09-14T18:31:54.739Z,1.35
2022-09-14T18:34:58.557Z,1.27
2022-09-14T18:38:02.158Z,1.80
2022-09-14T18:41:08.439Z,1.42
2022-09-14T18:44:13.969Z,2.10
2022-09-14T18:47:21.012Z,1.63
2022-09-14T18:50:25.106Z,1.90
2022-09-14T18:53:28.693Z,1.85
2022-09-14T18:56:34.220Z,1.73
2022-09-14T18:59:39.853Z,1.63
2022-09-14T19:02:43.470Z,1.58
2022-09-14T19:05:47.070Z,1.17
2022-09-14T19:08:51.537Z,1.30
2022-09-14T19:11:55.181Z,1.30
2022-09-14T19:15:00.722Z,1.38
2022-09-14T19:18:04.330Z,1.40
2022-09-14T19:21:09.392Z,1.23
2022-09-14T19:24:14.685Z,1.67
2022-09-14T19:27:18.826Z,1.42
2022-09-14T19:30:24.338Z,1.33
2022-09-14T19:33:27.987Z,1.00
2022-09-14T19:36:34.085Z,1.42
2022-09-14T19:39:37.776Z,1.13
2022-09-14T19:42:41.404Z,1.45
2022-09-14T19:45:47.199Z,1.30
2022-09-14T19:48:51.303Z,1.50
2022-09-14T19:51:55.941Z,1.30
2022-09-14T19:54:59.537Z,1.65
2022-09-14T19:58:03.459Z,1.42
2022-09-14T20:04:13.063Z,1.90
2022-09-14T20:10:20.443Z,1.30
2022-09-14T20:13:24.156Z,1.10
2022-09-14T20:16:31.815Z,1.13
2022-09-14T20:19:35.886Z,1.00
2022-09-14T20:22:39.592Z,1.55
2022-09-14T20:25:43.330Z,1.05
2022-09-14T20:28:46.971Z,1.30
2022-09-14T20:31:52.746Z,1.45
2022-09-14T20:34:56.427Z,1.10
2022-09-14T20:38:00.093Z,1.27
2022-09-14T20:41:07.081Z,1.55
2022-09-14T20:44:11.369Z,1.25
2022-09-14T20:47:16.886Z,0.90
2022-09-14T20:50:20.478Z,1.25
2022-09-14T20:53:24.723Z,1.60
2022-09-14T20:56:31.429Z,1.13
2022-09-14T20:59:35.325Z,1.75
2022-09-14T21:02:40.865Z,1.10
2022-09-14T21:05:44.527Z,1.00
2022-09-14T21:08:48.542Z,1.55
2022-09-14T21:14:56.048Z,0.80
2022-09-14T21:18:01.623Z,1.15
2022-09-14T21:21:07.110Z,1.13
2022-09-14T21:24:12.748Z,1.35
2022-09-14T21:27:16.391Z,1.20
2022-09-14T21:30:20.163Z,2.05
2022-09-14T21:33:26.034Z,1.30
2022-09-14T21:36:33.857Z,1.25
2022-09-14T21:39:37.802Z,1.25
2022-09-14T21:45:47.951Z,1.10
2022-09-14T21:48:53.929Z,1.27
2022-09-14T21:51:57.619Z,1.30
2022-09-14T21:55:01.220Z,1.42
2022-09-14T21:58:04.837Z,1.23
2022-09-14T22:01:08.884Z,1.10
2022-09-14T22:04:17.117Z,1.25
2022-09-14T22:07:21.275Z,1.38
2022-09-14T22:10:26.323Z,1.40
2022-09-14T22:13:29.906Z,1.08
2022-09-14T22:16:35.152Z,1.52
2022-09-14T22:19:41.205Z,1.33
2022-09-14T22:22:45.343Z,1.50
2022-09-14T22:25:48.949Z,1.27
2022-09-14T22:28:54.412Z,2.05
2022-09-14T22:31:58.742Z,1.80
2022-09-14T22:35:04.549Z,2.60
2022-09-14T22:38:08.765Z,1.98
2022-09-14T22:41:14.599Z,1.92
2022-09-14T22:44:18.224Z,1.95
2022-09-14T22:47:21.842Z,1.50
2022-09-14T22:50:27.425Z,1.92
2022-09-14T22:53:32.415Z,1.42
2022-09-14T22:56:37.732Z,1.77
2022-09-14T22:59:41.844Z,1.70
2022-09-14T23:02:45.470Z,1.80
2022-09-14T23:05:55.647Z,1.40
2022-09-14T23:08:59.792Z,1.90
2022-09-14T23:12:03.737Z,1.70
2022-09-14T23:15:08.326Z,1.42
2022-09-14T23:18:12.609Z,1.90
2022-09-14T23:21:18.361Z,1.92
2022-09-14T23:24:22.208Z,2.20
2022-09-14T23:27:25.997Z,1.80
2022-09-14T23:30:30.446Z,1.80
2022-09-14T23:33:35.046Z,2.40
2022-09-14T23:36:40.691Z,2.10
2022-09-14T23:39:44.424Z,2.15
2022-09-14T23:42:48.805Z,2.22
2022-09-14T23:45:52.452Z,1.85
2022-09-14T23:48:56.086Z,1.92
2022-09-14T23:52:01.617Z,2.13
2022-09-14T23:55:06.105Z,1.90
2022-09-14T23:58:09.725Z,2.28
